首页
METAR-TAF:

METAR-TAF

机场 :

仁川國際機場

仁川国际机场, 大韩民国

纬度: 37-28N, 经度: 126-27E, 海拔: 7米

当前天气观测

该预报发布于17分钟前的11:00 UTC
风速5节,风向北转西北
温度 12°C
湿度 88%
气压 1014 hPa
能見度: 2000
多云层高于600英尺
多云层高于2000英尺
阴天层高于7000英尺
小雨, 轻雾

METAR: RKSI 201100Z 34005KT 2000 -RA BR BKN006 BKN020 OVC070 12/10 Q1014 NOSIG

时间: 20:17 (11:17 UTC)

预报

该预报发布于2小时和50分钟前的08:27 UTC
预报有效从20日的 08点(UTC)到 21日的 12点(UTC)
风速6节,风向西北
能見度: 7000
少量云层高于1500英尺
多云层高于3000英尺
小雨
成为
从 20日的 11点(UTC)到 20日的 12点(UTC)
风速6节,风向
能見度: 4200
轻雾
成为
从 20日的 13点(UTC)到 20日的 14点(UTC)
风速6节,风向南转西南
能見度: 2500
短暂存在
从 20日的 19点(UTC)到 20日的 21点(UTC)
风速6节,风向西北
能見度: 0800
多云层高于200英尺
成为
从 20日的 22点(UTC)到 20日的 23点(UTC)
能見度: 3500
成为
从 21日的 02点(UTC)到 21日的 03点(UTC)
风速8节,风向西北
能見度: 6000
散云层高于3000英尺
多云层高于11000英尺

TAF: RKSI 200827Z 2008/2112 31006KT 7000 -RA FEW015 BKN030 TN09/2021Z TX17/2106Z BECMG 2011/2012 01006KT 4200 BR BECMG 2013/2014 20006KT 2500 TEMPO 2019/2021 31006KT 0800 FG BKN002 BECMG 2022/2023 3500 BECMG 2102/2103 31008KT 6000 NSW SCT030 BKN110

超过4000个机场的气象观测和天气预报(METAR&TAF报告)。

可查询的气象台以黄色和红色小点在地图上表示。

将鼠标移到小点上方,可查看气象台名称。

然后点击查看天气观测和预报。

如需切换地图:点击带黑十字的绿色按钮放大地图;点击带横线的绿色按钮缩小地图;或者点击绿色箭头查看邻近地区的地图。


METAR-TAF: